sensor_id;sensor_type;location;lat;lon;timestamp;P1;durP1;ratioP1;P2;durP2;ratioP2
57317;SDS011;43157;50.982;18.132;2022-12-26T00:00:43;27.30;;;12.40;;
57317;SDS011;43157;50.982;18.132;2022-12-26T00:03:08;25.30;;;9.70;;
57317;SDS011;43157;50.982;18.132;2022-12-26T00:05:34;23.70;;;10.10;;
57317;SDS011;43157;50.982;18.132;2022-12-26T00:08:01;21.80;;;7.50;;
57317;SDS011;43157;50.982;18.132;2022-12-26T00:10:27;23.90;;;9.60;;
57317;SDS011;43157;50.982;18.132;2022-12-26T00:12:53;26.30;;;9.70;;
57317;SDS011;43157;50.982;18.132;2022-12-26T00:15:18;24.30;;;8.90;;
57317;SDS011;43157;50.982;18.132;2022-12-26T00:17:44;21.40;;;8.40;;
57317;SDS011;43157;50.982;18.132;2022-12-26T00:20:09;23.50;;;8.90;;
57317;SDS011;43157;50.982;18.132;2022-12-26T00:22:36;22.00;;;8.40;;
57317;SDS011;43157;50.982;18.132;2022-12-26T00:25:01;17.70;;;7.00;;
57317;SDS011;43157;50.982;18.132;2022-12-26T00:27:27;22.00;;;8.00;;
57317;SDS011;43157;50.982;18.132;2022-12-26T00:29:53;21.90;;;7.70;;
57317;SDS011;43157;50.982;18.132;2022-12-26T00:32:19;23.70;;;8.10;;
57317;SDS011;43157;50.982;18.132;2022-12-26T00:34:44;20.90;;;7.50;;
57317;SDS011;43157;50.982;18.132;2022-12-26T00:37:10;19.10;;;7.70;;
57317;SDS011;43157;50.982;18.132;2022-12-26T00:39:35;19.10;;;7.50;;
57317;SDS011;43157;50.982;18.132;2022-12-26T00:42:01;18.10;;;6.20;;
57317;SDS011;43157;50.982;18.132;2022-12-26T00:44:26;23.50;;;7.50;;
57317;SDS011;43157;50.982;18.132;2022-12-26T00:46:52;15.50;;;5.40;;
57317;SDS011;43157;50.982;18.132;2022-12-26T00:49:17;19.50;;;7.40;;
57317;SDS011;43157;50.982;18.132;2022-12-26T00:51:43;18.50;;;5.90;;
57317;SDS011;43157;50.982;18.132;2022-12-26T00:54:09;16.90;;;5.80;;
57317;SDS011;43157;50.982;18.132;2022-12-26T00:56:34;19.90;;;7.30;;
57317;SDS011;43157;50.982;18.132;2022-12-26T00:59:00;23.30;;;8.50;;
57317;SDS011;43157;50.982;18.132;2022-12-26T01:01:25;20.60;;;7.80;;
57317;SDS011;43157;50.982;18.132;2022-12-26T01:03:55;19.50;;;7.50;;
57317;SDS011;43157;50.982;18.132;2022-12-26T01:06:21;18.70;;;7.90;;
57317;SDS011;43157;50.982;18.132;2022-12-26T01:08:47;22.10;;;8.30;;
57317;SDS011;43157;50.982;18.132;2022-12-26T01:11:14;19.70;;;7.00;;
57317;SDS011;43157;50.982;18.132;2022-12-26T01:13:40;20.80;;;7.70;;
57317;SDS011;43157;50.982;18.132;2022-12-26T01:16:07;21.00;;;7.10;;
57317;SDS011;43157;50.982;18.132;2022-12-26T01:18:33;20.70;;;7.70;;
57317;SDS011;43157;50.982;18.132;2022-12-26T01:21:06;23.20;;;8.60;;
57317;SDS011;43157;50.982;18.132;2022-12-26T01:23:32;20.30;;;7.70;;
57317;SDS011;43157;50.982;18.132;2022-12-26T01:25:58;21.50;;;8.40;;
57317;SDS011;43157;50.982;18.132;2022-12-26T01:28:24;18.60;;;7.00;;
57317;SDS011;43157;50.982;18.132;2022-12-26T01:30:50;19.60;;;6.50;;
57317;SDS011;43157;50.982;18.132;2022-12-26T01:33:15;20.50;;;7.40;;
57317;SDS011;43157;50.982;18.132;2022-12-26T01:35:47;18.80;;;7.40;;
57317;SDS011;43157;50.982;18.132;2022-12-26T01:38:17;21.00;;;6.90;;
57317;SDS011;43157;50.982;18.132;2022-12-26T01:40:43;21.00;;;7.30;;
57317;SDS011;43157;50.982;18.132;2022-12-26T01:43:12;22.00;;;6.70;;
57317;SDS011;43157;50.982;18.132;2022-12-26T01:45:39;19.00;;;7.70;;
57317;SDS011;43157;50.982;18.132;2022-12-26T01:48:09;18.70;;;6.90;;
57317;SDS011;43157;50.982;18.132;2022-12-26T01:50:52;19.50;;;6.60;;
57317;SDS011;43157;50.982;18.132;2022-12-26T01:53:26;19.60;;;6.90;;
57317;SDS011;43157;50.982;18.132;2022-12-26T01:56:04;17.60;;;6.80;;
57317;SDS011;43157;50.982;18.132;2022-12-26T01:58:34;19.50;;;5.60;;
57317;SDS011;43157;50.982;18.132;2022-12-26T02:01:02;19.60;;;7.30;;
57317;SDS011;43157;50.982;18.132;2022-12-26T02:03:30;16.00;;;5.90;;
57317;SDS011;43157;50.982;18.132;2022-12-26T02:06:14;24.20;;;7.80;;
57317;SDS011;43157;50.982;18.132;2022-12-26T02:08:40;16.50;;;6.10;;
57317;SDS011;43157;50.982;18.132;2022-12-26T02:11:13;20.90;;;7.00;;
57317;SDS011;43157;50.982;18.132;2022-12-26T02:13:41;23.30;;;8.20;;
57317;SDS011;43157;50.982;18.132;2022-12-26T02:16:08;17.40;;;6.50;;
57317;SDS011;43157;50.982;18.132;2022-12-26T02:18:36;18.40;;;6.50;;
57317;SDS011;43157;50.982;18.132;2022-12-26T02:23:46;19.00;;;6.60;;
57317;SDS011;43157;50.982;18.132;2022-12-26T02:43:50;20.00;;;7.50;;
57317;SDS011;43157;50.982;18.132;2022-12-26T02:46:20;18.40;;;6.90;;
57317;SDS011;43157;50.982;18.132;2022-12-26T02:52:25;16.40;;;6.90;;
57317;SDS011;43157;50.982;18.132;2022-12-26T02:55:16;19.50;;;7.20;;
57317;SDS011;43157;50.982;18.132;2022-12-26T02:58:08;19.90;;;7.10;;
57317;SDS011;43157;50.982;18.132;2022-12-26T03:01:09;18.30;;;7.70;;
57317;SDS011;43157;50.982;18.132;2022-12-26T03:04:01;18.40;;;7.70;;
57317;SDS011;43157;50.982;18.132;2022-12-26T03:06:55;17.90;;;7.00;;
57317;SDS011;43157;50.982;18.132;2022-12-26T03:09:40;17.30;;;6.80;;
57317;SDS011;43157;50.982;18.132;2022-12-26T03:12:40;16.60;;;6.60;;
57317;SDS011;43157;50.982;18.132;2022-12-26T03:15:29;19.30;;;6.40;;
57317;SDS011;43157;50.982;18.132;2022-12-26T03:18:16;19.30;;;8.20;;
57317;SDS011;43157;50.982;18.132;2022-12-26T03:20:43;16.90;;;6.20;;
57317;SDS011;43157;50.982;18.132;2022-12-26T03:23:13;18.20;;;7.30;;
57317;SDS011;43157;50.982;18.132;2022-12-26T03:25:44;17.00;;;5.90;;
57317;SDS011;43157;50.982;18.132;2022-12-26T03:28:38;19.30;;;7.00;;
57317;SDS011;43157;50.982;18.132;2022-12-26T03:31:06;17.80;;;6.70;;
57317;SDS011;43157;50.982;18.132;2022-12-26T03:33:35;18.30;;;7.50;;
57317;SDS011;43157;50.982;18.132;2022-12-26T03:42:45;18.80;;;7.50;;
57317;SDS011;43157;50.982;18.132;2022-12-26T03:45:35;16.80;;;7.10;;
57317;SDS011;43157;50.982;18.132;2022-12-26T03:48:31;21.00;;;7.50;;
57317;SDS011;43157;50.982;18.132;2022-12-26T03:51:30;18.40;;;7.60;;
57317;SDS011;43157;50.982;18.132;2022-12-26T03:54:21;17.20;;;6.50;;
57317;SDS011;43157;50.982;18.132;2022-12-26T03:57:10;16.40;;;7.40;;
57317;SDS011;43157;50.982;18.132;2022-12-26T04:00:00;17.20;;;6.90;;
57317;SDS011;43157;50.982;18.132;2022-12-26T04:02:47;19.00;;;6.90;;
57317;SDS011;43157;50.982;18.132;2022-12-26T04:05:33;22.00;;;7.40;;
57317;SDS011;43157;50.982;18.132;2022-12-26T04:08:23;16.80;;;7.30;;
57317;SDS011;43157;50.982;18.132;2022-12-26T04:11:14;18.70;;;6.50;;
57317;SDS011;43157;50.982;18.132;2022-12-26T04:14:04;18.40;;;7.60;;
57317;SDS011;43157;50.982;18.132;2022-12-26T04:16:55;19.00;;;7.80;;
57317;SDS011;43157;50.982;18.132;2022-12-26T04:20:07;18.90;;;7.60;;
57317;SDS011;43157;50.982;18.132;2022-12-26T04:22:36;17.90;;;6.60;;
57317;SDS011;43157;50.982;18.132;2022-12-26T04:25:25;17.50;;;6.90;;
57317;SDS011;43157;50.982;18.132;2022-12-26T04:28:11;18.00;;;6.70;;
57317;SDS011;43157;50.982;18.132;2022-12-26T04:30:58;17.70;;;7.40;;
57317;SDS011;43157;50.982;18.132;2022-12-26T04:33:49;16.70;;;6.90;;
57317;SDS011;43157;50.982;18.132;2022-12-26T04:36:37;19.30;;;7.40;;
57317;SDS011;43157;50.982;18.132;2022-12-26T04:42:13;19.60;;;7.50;;
57317;SDS011;43157;50.982;18.132;2022-12-26T04:44:59;19.60;;;7.70;;
57317;SDS011;43157;50.982;18.132;2022-12-26T04:47:25;18.30;;;8.30;;
57317;SDS011;43157;50.982;18.132;2022-12-26T04:49:50;18.30;;;7.90;;
57317;SDS011;43157;50.982;18.132;2022-12-26T04:52:35;15.30;;;6.70;;
57317;SDS011;43157;50.982;18.132;2022-12-26T04:55:19;19.20;;;7.80;;
57317;SDS011;43157;50.982;18.132;2022-12-26T04:57:44;17.60;;;6.80;;
57317;SDS011;43157;50.982;18.132;2022-12-26T05:00:10;17.80;;;7.10;;
57317;SDS011;43157;50.982;18.132;2022-12-26T05:02:37;15.50;;;7.20;;
57317;SDS011;43157;50.982;18.132;2022-12-26T05:08:04;21.80;;;8.60;;
57317;SDS011;43157;50.982;18.132;2022-12-26T05:10:48;16.40;;;7.30;;
57317;SDS011;43157;50.982;18.132;2022-12-26T05:13:14;18.20;;;7.40;;
57317;SDS011;43157;50.982;18.132;2022-12-26T05:15:40;17.60;;;7.30;;
57317;SDS011;43157;50.982;18.132;2022-12-26T05:18:24;15.00;;;5.20;;
57317;SDS011;43157;50.982;18.132;2022-12-26T05:21:10;21.10;;;8.40;;
57317;SDS011;43157;50.982;18.132;2022-12-26T05:23:55;24.80;;;9.70;;
57317;SDS011;43157;50.982;18.132;2022-12-26T05:26:40;22.40;;;6.70;;
57317;SDS011;43157;50.982;18.132;2022-12-26T05:29:24;19.30;;;8.00;;
57317;SDS011;43157;50.982;18.132;2022-12-26T05:31:50;17.00;;;7.10;;
57317;SDS011;43157;50.982;18.132;2022-12-26T05:34:16;18.10;;;8.10;;
57317;SDS011;43157;50.982;18.132;2022-12-26T05:39:17;19.70;;;7.90;;
57317;SDS011;43157;50.982;18.132;2022-12-26T05:41:43;21.60;;;8.50;;
57317;SDS011;43157;50.982;18.132;2022-12-26T05:44:10;21.90;;;8.90;;
57317;SDS011;43157;50.982;18.132;2022-12-26T05:46:39;21.60;;;8.30;;
57317;SDS011;43157;50.982;18.132;2022-12-26T05:49:06;22.00;;;8.40;;
57317;SDS011;43157;50.982;18.132;2022-12-26T05:51:32;20.70;;;8.60;;
57317;SDS011;43157;50.982;18.132;2022-12-26T05:53:59;20.10;;;9.50;;
57317;SDS011;43157;50.982;18.132;2022-12-26T05:56:24;24.20;;;9.80;;
57317;SDS011;43157;50.982;18.132;2022-12-26T05:58:57;19.50;;;7.90;;
57317;SDS011;43157;50.982;18.132;2022-12-26T06:01:24;20.30;;;8.80;;
57317;SDS011;43157;50.982;18.132;2022-12-26T06:03:52;19.30;;;8.80;;
57317;SDS011;43157;50.982;18.132;2022-12-26T06:06:19;19.10;;;8.40;;
57317;SDS011;43157;50.982;18.132;2022-12-26T06:08:48;18.00;;;7.00;;
57317;SDS011;43157;50.982;18.132;2022-12-26T06:11:16;19.50;;;7.60;;
57317;SDS011;43157;50.982;18.132;2022-12-26T06:13:42;20.90;;;8.60;;
57317;SDS011;43157;50.982;18.132;2022-12-26T06:16:12;22.60;;;9.70;;
57317;SDS011;43157;50.982;18.132;2022-12-26T06:18:39;21.50;;;9.00;;
57317;SDS011;43157;50.982;18.132;2022-12-26T06:21:05;19.70;;;9.60;;
57317;SDS011;43157;50.982;18.132;2022-12-26T06:23:33;27.10;;;10.30;;
57317;SDS011;43157;50.982;18.132;2022-12-26T06:25:59;24.00;;;9.40;;
57317;SDS011;43157;50.982;18.132;2022-12-26T06:28:24;22.90;;;10.00;;
57317;SDS011;43157;50.982;18.132;2022-12-26T06:30:50;22.80;;;9.00;;
57317;SDS011;43157;50.982;18.132;2022-12-26T06:33:17;19.70;;;8.80;;
57317;SDS011;43157;50.982;18.132;2022-12-26T06:35:42;22.50;;;9.30;;
57317;SDS011;43157;50.982;18.132;2022-12-26T06:38:09;17.40;;;8.50;;
57317;SDS011;43157;50.982;18.132;2022-12-26T06:40:38;20.90;;;9.30;;
57317;SDS011;43157;50.982;18.132;2022-12-26T06:43:04;19.90;;;8.60;;
57317;SDS011;43157;50.982;18.132;2022-12-26T06:45:30;20.60;;;9.10;;
57317;SDS011;43157;50.982;18.132;2022-12-26T06:47:56;19.50;;;9.10;;
57317;SDS011;43157;50.982;18.132;2022-12-26T06:50:23;18.70;;;9.30;;
57317;SDS011;43157;50.982;18.132;2022-12-26T06:52:49;21.60;;;8.30;;
57317;SDS011;43157;50.982;18.132;2022-12-26T06:55:15;26.40;;;10.20;;
57317;SDS011;43157;50.982;18.132;2022-12-26T06:57:40;20.10;;;8.60;;
57317;SDS011;43157;50.982;18.132;2022-12-26T07:00:06;23.70;;;9.70;;
57317;SDS011;43157;50.982;18.132;2022-12-26T07:02:32;22.50;;;9.80;;
57317;SDS011;43157;50.982;18.132;2022-12-26T07:04:58;26.00;;;11.30;;
57317;SDS011;43157;50.982;18.132;2022-12-26T07:07:23;28.20;;;10.30;;
57317;SDS011;43157;50.982;18.132;2022-12-26T07:09:49;24.30;;;10.10;;
57317;SDS011;43157;50.982;18.132;2022-12-26T07:12:14;23.40;;;10.80;;
57317;SDS011;43157;50.982;18.132;2022-12-26T07:14:40;22.90;;;10.40;;
57317;SDS011;43157;50.982;18.132;2022-12-26T07:17:06;24.50;;;11.00;;
57317;SDS011;43157;50.982;18.132;2022-12-26T07:19:34;23.00;;;10.50;;
57317;SDS011;43157;50.982;18.132;2022-12-26T07:21:59;25.00;;;9.90;;
57317;SDS011;43157;50.982;18.132;2022-12-26T07:24:25;19.90;;;9.40;;
57317;SDS011;43157;50.982;18.132;2022-12-26T07:26:51;21.10;;;9.50;;
57317;SDS011;43157;50.982;18.132;2022-12-26T07:29:17;22.00;;;10.00;;
57317;SDS011;43157;50.982;18.132;2022-12-26T07:31:43;23.20;;;11.00;;
57317;SDS011;43157;50.982;18.132;2022-12-26T07:34:09;22.40;;;9.80;;
57317;SDS011;43157;50.982;18.132;2022-12-26T07:36:34;17.50;;;8.70;;
57317;SDS011;43157;50.982;18.132;2022-12-26T07:39:00;18.50;;;8.40;;
57317;SDS011;43157;50.982;18.132;2022-12-26T07:41:25;18.30;;;8.70;;
57317;SDS011;43157;50.982;18.132;2022-12-26T07:46:35;18.70;;;8.90;;
57317;SDS011;43157;50.982;18.132;2022-12-26T07:49:01;19.60;;;9.10;;
57317;SDS011;43157;50.982;18.132;2022-12-26T07:51:27;19.30;;;8.80;;
57317;SDS011;43157;50.982;18.132;2022-12-26T07:53:53;20.90;;;8.60;;
57317;SDS011;43157;50.982;18.132;2022-12-26T07:56:18;19.90;;;7.60;;
57317;SDS011;43157;50.982;18.132;2022-12-26T07:58:47;19.90;;;8.30;;
57317;SDS011;43157;50.982;18.132;2022-12-26T08:01:14;18.70;;;7.60;;
57317;SDS011;43157;50.982;18.132;2022-12-26T08:03:40;20.00;;;8.80;;
57317;SDS011;43157;50.982;18.132;2022-12-26T08:06:08;22.10;;;9.70;;
57317;SDS011;43157;50.982;18.132;2022-12-26T08:08:35;21.10;;;9.40;;
57317;SDS011;43157;50.982;18.132;2022-12-26T08:11:02;20.30;;;9.00;;
57317;SDS011;43157;50.982;18.132;2022-12-26T08:13:31;21.00;;;10.10;;
57317;SDS011;43157;50.982;18.132;2022-12-26T08:15:57;19.60;;;8.90;;
57317;SDS011;43157;50.982;18.132;2022-12-26T08:18:25;18.50;;;8.80;;
57317;SDS011;43157;50.982;18.132;2022-12-26T08:20:51;19.00;;;8.70;;
57317;SDS011;43157;50.982;18.132;2022-12-26T08:23:16;21.50;;;9.40;;
57317;SDS011;43157;50.982;18.132;2022-12-26T08:25:42;18.00;;;8.40;;
57317;SDS011;43157;50.982;18.132;2022-12-26T08:28:08;18.20;;;8.50;;
57317;SDS011;43157;50.982;18.132;2022-12-26T08:30:34;17.40;;;7.30;;
57317;SDS011;43157;50.982;18.132;2022-12-26T08:32:59;21.80;;;8.50;;
57317;SDS011;43157;50.982;18.132;2022-12-26T08:35:25;18.90;;;9.00;;
57317;SDS011;43157;50.982;18.132;2022-12-26T08:37:51;22.90;;;8.80;;
57317;SDS011;43157;50.982;18.132;2022-12-26T08:40:16;22.30;;;8.70;;
57317;SDS011;43157;50.982;18.132;2022-12-26T08:42:42;19.10;;;8.50;;
57317;SDS011;43157;50.982;18.132;2022-12-26T08:45:07;17.80;;;8.00;;
57317;SDS011;43157;50.982;18.132;2022-12-26T08:47:33;20.50;;;8.60;;
57317;SDS011;43157;50.982;18.132;2022-12-26T08:49:59;23.40;;;10.10;;
57317;SDS011;43157;50.982;18.132;2022-12-26T08:52:24;18.80;;;9.50;;
57317;SDS011;43157;50.982;18.132;2022-12-26T08:54:50;18.20;;;8.60;;
57317;SDS011;43157;50.982;18.132;2022-12-26T08:57:16;16.80;;;8.00;;
57317;SDS011;43157;50.982;18.132;2022-12-26T08:59:41;16.90;;;7.20;;
57317;SDS011;43157;50.982;18.132;2022-12-26T09:02:08;17.60;;;7.20;;
57317;SDS011;43157;50.982;18.132;2022-12-26T09:04:35;18.50;;;7.30;;
57317;SDS011;43157;50.982;18.132;2022-12-26T09:07:01;16.50;;;7.80;;
57317;SDS011;43157;50.982;18.132;2022-12-26T09:09:27;17.90;;;7.90;;
57317;SDS011;43157;50.982;18.132;2022-12-26T09:11:53;15.90;;;7.90;;
57317;SDS011;43157;50.982;18.132;2022-12-26T09:14:18;16.80;;;7.50;;
57317;SDS011;43157;50.982;18.132;2022-12-26T09:16:44;15.40;;;7.00;;
57317;SDS011;43157;50.982;18.132;2022-12-26T09:19:11;16.40;;;8.30;;
57317;SDS011;43157;50.982;18.132;2022-12-26T09:21:38;18.60;;;9.70;;
57317;SDS011;43157;50.982;18.132;2022-12-26T09:24:08;17.60;;;7.30;;
57317;SDS011;43157;50.982;18.132;2022-12-26T09:26:35;13.90;;;5.60;;
57317;SDS011;43157;50.982;18.132;2022-12-26T09:29:01;16.20;;;7.40;;
57317;SDS011;43157;50.982;18.132;2022-12-26T09:31:28;13.80;;;6.70;;
57317;SDS011;43157;50.982;18.132;2022-12-26T09:33:56;16.00;;;7.10;;
57317;SDS011;43157;50.982;18.132;2022-12-26T09:36:26;22.00;;;9.10;;
57317;SDS011;43157;50.982;18.132;2022-12-26T09:38:54;18.30;;;8.40;;
57317;SDS011;43157;50.982;18.132;2022-12-26T09:49:38;16.50;;;7.10;;
57317;SDS011;43157;50.982;18.132;2022-12-26T09:52:12;16.40;;;7.20;;
57317;SDS011;43157;50.982;18.132;2022-12-26T09:54:41;21.90;;;9.00;;
57317;SDS011;43157;50.982;18.132;2022-12-26T09:57:17;16.90;;;7.30;;
57317;SDS011;43157;50.982;18.132;2022-12-26T09:59:47;19.20;;;8.20;;
57317;SDS011;43157;50.982;18.132;2022-12-26T10:02:20;22.00;;;9.70;;
57317;SDS011;43157;50.982;18.132;2022-12-26T10:04:47;18.50;;;8.40;;
57317;SDS011;43157;50.982;18.132;2022-12-26T10:07:28;16.90;;;7.80;;
57317;SDS011;43157;50.982;18.132;2022-12-26T10:20:30;21.40;;;9.60;;
57317;SDS011;43157;50.982;18.132;2022-12-26T10:23:23;29.50;;;12.50;;
57317;SDS011;43157;50.982;18.132;2022-12-26T10:25:52;35.90;;;14.00;;
57317;SDS011;43157;50.982;18.132;2022-12-26T10:31:15;26.00;;;11.70;;
57317;SDS011;43157;50.982;18.132;2022-12-26T10:33:49;21.00;;;9.70;;
57317;SDS011;43157;50.982;18.132;2022-12-26T10:36:26;21.90;;;10.00;;
57317;SDS011;43157;50.982;18.132;2022-12-26T10:38:57;18.30;;;9.30;;
57317;SDS011;43157;50.982;18.132;2022-12-26T10:41:25;17.70;;;8.40;;
57317;SDS011;43157;50.982;18.132;2022-12-26T10:43:52;15.90;;;8.00;;
57317;SDS011;43157;50.982;18.132;2022-12-26T10:46:26;17.00;;;8.20;;
57317;SDS011;43157;50.982;18.132;2022-12-26T10:48:59;17.10;;;7.90;;
57317;SDS011;43157;50.982;18.132;2022-12-26T10:51:24;16.60;;;7.80;;
57317;SDS011;43157;50.982;18.132;2022-12-26T10:53:51;16.50;;;8.40;;
57317;SDS011;43157;50.982;18.132;2022-12-26T10:56:18;16.60;;;8.00;;
57317;SDS011;43157;50.982;18.132;2022-12-26T10:58:45;15.00;;;7.30;;
57317;SDS011;43157;50.982;18.132;2022-12-26T11:03:56;17.30;;;7.20;;
57317;SDS011;43157;50.982;18.132;2022-12-26T11:06:24;17.90;;;8.10;;
57317;SDS011;43157;50.982;18.132;2022-12-26T11:08:52;17.00;;;8.10;;
57317;SDS011;43157;50.982;18.132;2022-12-26T11:13:46;18.50;;;8.30;;
57317;SDS011;43157;50.982;18.132;2022-12-26T11:16:22;21.60;;;9.30;;
57317;SDS011;43157;50.982;18.132;2022-12-26T11:18:50;17.50;;;7.50;;
57317;SDS011;43157;50.982;18.132;2022-12-26T11:23:42;16.30;;;6.60;;
57317;SDS011;43157;50.982;18.132;2022-12-26T11:26:30;16.60;;;7.80;;
57317;SDS011;43157;50.982;18.132;2022-12-26T11:31:32;16.80;;;7.00;;
57317;SDS011;43157;50.982;18.132;2022-12-26T11:33:58;15.10;;;6.70;;
57317;SDS011;43157;50.982;18.132;2022-12-26T11:36:26;18.70;;;7.20;;
57317;SDS011;43157;50.982;18.132;2022-12-26T11:38:54;17.10;;;7.50;;
57317;SDS011;43157;50.982;18.132;2022-12-26T11:44:04;20.10;;;7.00;;
57317;SDS011;43157;50.982;18.132;2022-12-26T11:46:59;17.70;;;7.80;;
57317;SDS011;43157;50.982;18.132;2022-12-26T11:49:35;19.40;;;7.90;;
57317;SDS011;43157;50.982;18.132;2022-12-26T11:55:28;18.40;;;6.90;;
57317;SDS011;43157;50.982;18.132;2022-12-26T12:00:43;15.90;;;7.00;;
57317;SDS011;43157;50.982;18.132;2022-12-26T12:03:31;17.20;;;7.20;;
57317;SDS011;43157;50.982;18.132;2022-12-26T12:12:02;19.70;;;8.30;;
57317;SDS011;43157;50.982;18.132;2022-12-26T12:14:47;17.40;;;8.20;;
57317;SDS011;43157;50.982;18.132;2022-12-26T12:39:18;19.70;;;9.00;;
57317;SDS011;43157;50.982;18.132;2022-12-26T13:01:22;27.00;;;9.70;;
57317;SDS011;43157;50.982;18.132;2022-12-26T13:03:53;23.50;;;10.20;;
57317;SDS011;43157;50.982;18.132;2022-12-26T13:06:27;20.10;;;8.50;;
57317;SDS011;43157;50.982;18.132;2022-12-26T13:09:03;18.20;;;7.60;;
57317;SDS011;43157;50.982;18.132;2022-12-26T13:11:36;17.60;;;7.60;;
57317;SDS011;43157;50.982;18.132;2022-12-26T13:14:10;15.70;;;6.20;;
57317;SDS011;43157;50.982;18.132;2022-12-26T13:16:42;17.10;;;7.00;;
57317;SDS011;43157;50.982;18.132;2022-12-26T13:19:21;17.00;;;6.90;;
57317;SDS011;43157;50.982;18.132;2022-12-26T13:21:50;18.00;;;7.40;;
57317;SDS011;43157;50.982;18.132;2022-12-26T13:24:27;20.30;;;9.20;;
57317;SDS011;43157;50.982;18.132;2022-12-26T13:31:56;32.90;;;12.60;;
57317;SDS011;43157;50.982;18.132;2022-12-26T13:34:23;32.10;;;12.40;;
57317;SDS011;43157;50.982;18.132;2022-12-26T13:36:49;29.90;;;11.50;;
57317;SDS011;43157;50.982;18.132;2022-12-26T13:44:50;50.30;;;15.00;;
57317;SDS011;43157;50.982;18.132;2022-12-26T14:01:48;37.40;;;12.10;;
57317;SDS011;43157;50.982;18.132;2022-12-26T14:16:21;26.90;;;10.60;;
57317;SDS011;43157;50.982;18.132;2022-12-26T14:18:53;18.20;;;7.80;;
57317;SDS011;43157;50.982;18.132;2022-12-26T14:29:08;25.50;;;9.70;;
57317;SDS011;43157;50.982;18.132;2022-12-26T14:31:56;27.40;;;11.30;;
57317;SDS011;43157;50.982;18.132;2022-12-26T14:34:44;26.30;;;8.80;;
57317;SDS011;43157;50.982;18.132;2022-12-26T14:40:16;21.50;;;7.90;;
57317;SDS011;43157;50.982;18.132;2022-12-26T14:43:09;27.50;;;9.10;;
57317;SDS011;43157;50.982;18.132;2022-12-26T14:50:41;19.60;;;8.20;;
57317;SDS011;43157;50.982;18.132;2022-12-26T15:00:52;10.40;;;3.80;;
57317;SDS011;43157;50.982;18.132;2022-12-26T15:03:25;18.90;;;5.00;;
57317;SDS011;43157;50.982;18.132;2022-12-26T15:11:31;40.60;;;17.20;;
57317;SDS011;43157;50.982;18.132;2022-12-26T15:33:51;45.30;;;17.30;;
57317;SDS011;43157;50.982;18.132;2022-12-26T15:41:55;25.70;;;10.60;;
57317;SDS011;43157;50.982;18.132;2022-12-26T15:47:37;22.80;;;10.10;;
57317;SDS011;43157;50.982;18.132;2022-12-26T16:00:24;25.90;;;12.00;;
57317;SDS011;43157;50.982;18.132;2022-12-26T16:05:53;22.50;;;10.10;;
57317;SDS011;43157;50.982;18.132;2022-12-26T16:08:35;21.90;;;10.40;;
57317;SDS011;43157;50.982;18.132;2022-12-26T16:11:14;23.00;;;10.10;;
57317;SDS011;43157;50.982;18.132;2022-12-26T16:16:38;28.90;;;11.30;;
57317;SDS011;43157;50.982;18.132;2022-12-26T16:19:13;28.90;;;10.80;;
57317;SDS011;43157;50.982;18.132;2022-12-26T16:21:44;36.00;;;11.80;;
57317;SDS011;43157;50.982;18.132;2022-12-26T16:24:36;27.00;;;10.90;;
57317;SDS011;43157;50.982;18.132;2022-12-26T16:27:04;30.00;;;12.00;;
57317;SDS011;43157;50.982;18.132;2022-12-26T16:29:32;24.50;;;10.10;;
57317;SDS011;43157;50.982;18.132;2022-12-26T16:32:05;20.40;;;9.00;;
57317;SDS011;43157;50.982;18.132;2022-12-26T16:34:32;23.10;;;9.20;;
57317;SDS011;43157;50.982;18.132;2022-12-26T16:36:59;21.70;;;8.90;;
57317;SDS011;43157;50.982;18.132;2022-12-26T16:39:27;18.80;;;8.60;;
57317;SDS011;43157;50.982;18.132;2022-12-26T16:44:35;20.70;;;8.80;;
57317;SDS011;43157;50.982;18.132;2022-12-26T16:47:06;22.70;;;9.70;;
57317;SDS011;43157;50.982;18.132;2022-12-26T16:49:34;19.90;;;8.30;;
57317;SDS011;43157;50.982;18.132;2022-12-26T16:52:02;17.70;;;8.10;;
57317;SDS011;43157;50.982;18.132;2022-12-26T16:54:29;17.10;;;8.00;;
57317;SDS011;43157;50.982;18.132;2022-12-26T16:57:03;20.60;;;8.20;;
57317;SDS011;43157;50.982;18.132;2022-12-26T16:59:36;21.10;;;8.30;;
57317;SDS011;43157;50.982;18.132;2022-12-26T17:02:02;19.00;;;7.50;;
57317;SDS011;43157;50.982;18.132;2022-12-26T17:04:29;17.60;;;8.00;;
57317;SDS011;43157;50.982;18.132;2022-12-26T17:06:56;15.40;;;7.20;;
57317;SDS011;43157;50.982;18.132;2022-12-26T17:09:25;21.00;;;8.40;;
57317;SDS011;43157;50.982;18.132;2022-12-26T17:12:03;18.70;;;6.80;;
57317;SDS011;43157;50.982;18.132;2022-12-26T17:14:33;17.90;;;7.00;;
57317;SDS011;43157;50.982;18.132;2022-12-26T17:17:10;18.60;;;7.00;;
57317;SDS011;43157;50.982;18.132;2022-12-26T17:19:55;19.80;;;7.50;;
57317;SDS011;43157;50.982;18.132;2022-12-26T17:22:29;15.00;;;6.50;;
57317;SDS011;43157;50.982;18.132;2022-12-26T17:30:34;18.10;;;6.80;;
57317;SDS011;43157;50.982;18.132;2022-12-26T17:33:01;20.70;;;9.40;;
57317;SDS011;43157;50.982;18.132;2022-12-26T17:35:29;24.90;;;12.20;;
57317;SDS011;43157;50.982;18.132;2022-12-26T17:37:59;22.40;;;9.00;;
57317;SDS011;43157;50.982;18.132;2022-12-26T17:40:27;22.80;;;8.20;;
57317;SDS011;43157;50.982;18.132;2022-12-26T17:43:23;18.50;;;7.20;;
57317;SDS011;43157;50.982;18.132;2022-12-26T17:45:54;23.00;;;8.10;;
57317;SDS011;43157;50.982;18.132;2022-12-26T17:48:20;16.70;;;5.90;;
57317;SDS011;43157;50.982;18.132;2022-12-26T17:50:47;17.60;;;6.70;;
57317;SDS011;43157;50.982;18.132;2022-12-26T17:55:48;20.10;;;7.70;;
57317;SDS011;43157;50.982;18.132;2022-12-26T17:58:15;16.40;;;5.80;;
57317;SDS011;43157;50.982;18.132;2022-12-26T18:00:41;15.40;;;5.80;;
57317;SDS011;43157;50.982;18.132;2022-12-26T18:03:07;14.80;;;5.40;;
57317;SDS011;43157;50.982;18.132;2022-12-26T18:05:33;14.30;;;3.90;;
57317;SDS011;43157;50.982;18.132;2022-12-26T18:07:59;14.80;;;6.00;;
57317;SDS011;43157;50.982;18.132;2022-12-26T18:10:26;14.90;;;5.50;;
57317;SDS011;43157;50.982;18.132;2022-12-26T18:12:54;17.10;;;7.40;;
57317;SDS011;43157;50.982;18.132;2022-12-26T18:15:20;12.90;;;4.90;;
57317;SDS011;43157;50.982;18.132;2022-12-26T18:17:47;15.90;;;5.80;;
57317;SDS011;43157;50.982;18.132;2022-12-26T18:20:14;17.70;;;5.70;;
57317;SDS011;43157;50.982;18.132;2022-12-26T18:22:42;16.80;;;6.70;;
57317;SDS011;43157;50.982;18.132;2022-12-26T18:25:10;14.80;;;6.00;;
57317;SDS011;43157;50.982;18.132;2022-12-26T18:27:36;14.30;;;5.40;;
57317;SDS011;43157;50.982;18.132;2022-12-26T18:30:02;14.80;;;5.40;;
57317;SDS011;43157;50.982;18.132;2022-12-26T18:32:30;12.80;;;4.40;;
57317;SDS011;43157;50.982;18.132;2022-12-26T18:34:57;12.60;;;4.90;;
57317;SDS011;43157;50.982;18.132;2022-12-26T18:37:24;11.90;;;4.10;;
57317;SDS011;43157;50.982;18.132;2022-12-26T18:39:51;13.10;;;4.20;;
57317;SDS011;43157;50.982;18.132;2022-12-26T18:42:17;12.80;;;4.10;;
57317;SDS011;43157;50.982;18.132;2022-12-26T18:44:43;12.10;;;4.00;;
57317;SDS011;43157;50.982;18.132;2022-12-26T18:47:13;11.20;;;4.00;;
57317;SDS011;43157;50.982;18.132;2022-12-26T18:49:40;13.10;;;4.20;;
57317;SDS011;43157;50.982;18.132;2022-12-26T18:52:07;14.20;;;4.20;;
57317;SDS011;43157;50.982;18.132;2022-12-26T18:54:33;13.50;;;4.20;;